Decoded Metar for KEMV (EMPORIA in VA, USA) (IATA:EMV) | Meteo·Mobile Aviation Weather
aviador You're here:

KEMV Decoded Metar

EMPORIA in VA, USA
Report Time2018-12-13 10:51:00
UTC Time2018-12-13 11:47:56
Flight Rules vfr VFR
WindCalm
Visibility9999 m
Phenomena:N/A
Clouds:Broken 075 Hf
Ceiling7,500 ft
Temp-2°C (ISA -17)
Dew Point-2°C (100% RH)
AAT-4.3°C
QNH1024 hPa
Density Alt-2,231 ft
Elevation128 ft
Report Wrong Elevation
Raw Report
METAR KEMV 131051Z AUTO 00000KT 10SM BKN075 M02/M02 A3025 RMK AO2=

Extra information for KEMV:More info

Metar Taf Metar & Taf Last 4 Metars F.Rules Stats Wind Profile Meteogram Temp Stats Airport Information Weather charts Add Link Nearby VenuesMetar ALERT Operation Metar Decoded Social comments

AIRNAV info for KEMV